sensor_id;sensor_type;location;lat;lon;timestamp;temperature;humidity
21787;DHT22;11055;50.870;4.316;2022-12-24T00:00:30;11.00;99.90
21787;DHT22;11055;50.870;4.316;2022-12-24T00:02:56;10.90;99.90
21787;DHT22;11055;50.870;4.316;2022-12-24T00:05:22;10.90;99.90
21787;DHT22;11055;50.870;4.316;2022-12-24T00:07:47;10.90;99.90
21787;DHT22;11055;50.870;4.316;2022-12-24T00:10:13;10.90;99.90
21787;DHT22;11055;50.870;4.316;2022-12-24T00:12:38;11.00;99.90
21787;DHT22;11055;50.870;4.316;2022-12-24T00:15:05;11.00;99.90
21787;DHT22;11055;50.870;4.316;2022-12-24T00:17:31;11.00;99.90
21787;DHT22;11055;50.870;4.316;2022-12-24T00:19:57;11.00;99.90
21787;DHT22;11055;50.870;4.316;2022-12-24T00:22:23;11.10;99.90
21787;DHT22;11055;50.870;4.316;2022-12-24T00:24:48;11.10;99.90
21787;DHT22;11055;50.870;4.316;2022-12-24T00:27:14;11.10;99.90
21787;DHT22;11055;50.870;4.316;2022-12-24T00:29:39;11.00;99.90
21787;DHT22;11055;50.870;4.316;2022-12-24T00:32:05;11.00;99.90
21787;DHT22;11055;50.870;4.316;2022-12-24T00:34:35;11.10;99.90
21787;DHT22;11055;50.870;4.316;2022-12-24T00:37:01;11.00;99.90
21787;DHT22;11055;50.870;4.316;2022-12-24T00:39:27;10.90;99.90
21787;DHT22;11055;50.870;4.316;2022-12-24T00:41:53;10.90;99.90
21787;DHT22;11055;50.870;4.316;2022-12-24T00:44:18;10.90;99.90
21787;DHT22;11055;50.870;4.316;2022-12-24T00:46:44;11.00;99.90
21787;DHT22;11055;50.870;4.316;2022-12-24T00:49:11;10.90;99.90
21787;DHT22;11055;50.870;4.316;2022-12-24T00:51:37;10.90;99.90
21787;DHT22;11055;50.870;4.316;2022-12-24T00:54:04;11.00;99.90
21787;DHT22;11055;50.870;4.316;2022-12-24T00:56:29;11.00;99.90
21787;DHT22;11055;50.870;4.316;2022-12-24T00:58:55;11.00;99.90
21787;DHT22;11055;50.870;4.316;2022-12-24T01:01:22;10.90;99.90
21787;DHT22;11055;50.870;4.316;2022-12-24T01:03:48;10.80;99.90
21787;DHT22;11055;50.870;4.316;2022-12-24T01:06:20;10.70;99.90
21787;DHT22;11055;50.870;4.316;2022-12-24T01:08:49;10.70;99.90
21787;DHT22;11055;50.870;4.316;2022-12-24T01:11:16;10.70;99.90
21787;DHT22;11055;50.870;4.316;2022-12-24T01:13:41;10.60;99.90
21787;DHT22;11055;50.870;4.316;2022-12-24T01:16:19;10.70;99.90
21787;DHT22;11055;50.870;4.316;2022-12-24T01:18:44;10.70;99.90
21787;DHT22;11055;50.870;4.316;2022-12-24T01:21:10;10.70;99.90
21787;DHT22;11055;50.870;4.316;2022-12-24T01:23:36;10.70;99.90
21787;DHT22;11055;50.870;4.316;2022-12-24T01:26:03;10.60;99.90
21787;DHT22;11055;50.870;4.316;2022-12-24T01:28:30;10.60;99.90
21787;DHT22;11055;50.870;4.316;2022-12-24T01:30:56;10.50;99.90
21787;DHT22;11055;50.870;4.316;2022-12-24T01:33:21;10.50;99.90
21787;DHT22;11055;50.870;4.316;2022-12-24T01:35:47;10.40;99.90
21787;DHT22;11055;50.870;4.316;2022-12-24T01:38:14;10.40;99.90
21787;DHT22;11055;50.870;4.316;2022-12-24T01:40:40;10.40;99.90
21787;DHT22;11055;50.870;4.316;2022-12-24T01:43:27;10.40;99.90
21787;DHT22;11055;50.870;4.316;2022-12-24T01:46:15;10.40;99.90
21787;DHT22;11055;50.870;4.316;2022-12-24T01:48:41;10.30;99.90
21787;DHT22;11055;50.870;4.316;2022-12-24T01:51:31;10.30;99.90
21787;DHT22;11055;50.870;4.316;2022-12-24T01:54:06;10.40;99.90
21787;DHT22;11055;50.870;4.316;2022-12-24T01:56:36;10.40;99.90
21787;DHT22;11055;50.870;4.316;2022-12-24T01:59:06;10.50;99.90
21787;DHT22;11055;50.870;4.316;2022-12-24T02:01:32;10.50;99.90
21787;DHT22;11055;50.870;4.316;2022-12-24T02:04:00;10.50;99.90
21787;DHT22;11055;50.870;4.316;2022-12-24T02:06:27;10.50;99.90
21787;DHT22;11055;50.870;4.316;2022-12-24T02:08:52;10.50;99.90
21787;DHT22;11055;50.870;4.316;2022-12-24T02:11:21;10.60;99.90
21787;DHT22;11055;50.870;4.316;2022-12-24T02:13:50;10.70;99.90
21787;DHT22;11055;50.870;4.316;2022-12-24T02:24:55;10.80;99.90
21787;DHT22;11055;50.870;4.316;2022-12-24T02:30:22;10.80;99.90
21787;DHT22;11055;50.870;4.316;2022-12-24T02:35:50;10.80;99.90
21787;DHT22;11055;50.870;4.316;2022-12-24T02:38:56;10.80;99.90
21787;DHT22;11055;50.870;4.316;2022-12-24T02:41:32;10.80;99.90
21787;DHT22;11055;50.870;4.316;2022-12-24T02:44:21;10.80;99.90
21787;DHT22;11055;50.870;4.316;2022-12-24T02:46:48;10.90;99.90
21787;DHT22;11055;50.870;4.316;2022-12-24T02:49:15;11.00;99.90
21787;DHT22;11055;50.870;4.316;2022-12-24T02:51:40;11.00;99.90
21787;DHT22;11055;50.870;4.316;2022-12-24T02:54:06;10.90;99.90
21787;DHT22;11055;50.870;4.316;2022-12-24T03:00:07;11.00;99.90
21787;DHT22;11055;50.870;4.316;2022-12-24T03:05:23;10.80;99.90
21787;DHT22;11055;50.870;4.316;2022-12-24T03:13:05;10.80;99.90
21787;DHT22;11055;50.870;4.316;2022-12-24T03:15:32;10.80;99.90
21787;DHT22;11055;50.870;4.316;2022-12-24T03:18:00;10.80;99.90
21787;DHT22;11055;50.870;4.316;2022-12-24T03:20:39;10.70;99.90
21787;DHT22;11055;50.870;4.316;2022-12-24T03:23:05;10.60;99.90
21787;DHT22;11055;50.870;4.316;2022-12-24T03:25:32;10.50;99.90
21787;DHT22;11055;50.870;4.316;2022-12-24T03:28:01;10.50;99.90
21787;DHT22;11055;50.870;4.316;2022-12-24T03:30:28;10.60;99.90
21787;DHT22;11055;50.870;4.316;2022-12-24T03:32:54;10.60;99.90
21787;DHT22;11055;50.870;4.316;2022-12-24T03:35:19;10.70;99.90
21787;DHT22;11055;50.870;4.316;2022-12-24T03:37:45;10.70;99.90
21787;DHT22;11055;50.870;4.316;2022-12-24T03:40:11;10.70;99.90
21787;DHT22;11055;50.870;4.316;2022-12-24T03:42:37;10.70;99.90
21787;DHT22;11055;50.870;4.316;2022-12-24T03:45:03;10.80;99.90
21787;DHT22;11055;50.870;4.316;2022-12-24T03:47:30;10.80;99.90
21787;DHT22;11055;50.870;4.316;2022-12-24T03:49:55;10.80;99.90
21787;DHT22;11055;50.870;4.316;2022-12-24T03:52:21;10.80;99.90
21787;DHT22;11055;50.870;4.316;2022-12-24T03:54:47;10.80;99.90
21787;DHT22;11055;50.870;4.316;2022-12-24T03:57:12;10.80;99.90
21787;DHT22;11055;50.870;4.316;2022-12-24T03:59:38;10.80;99.90
21787;DHT22;11055;50.870;4.316;2022-12-24T04:02:04;10.70;99.90
21787;DHT22;11055;50.870;4.316;2022-12-24T04:04:29;10.70;99.90
21787;DHT22;11055;50.870;4.316;2022-12-24T04:06:56;10.60;99.90
21787;DHT22;11055;50.870;4.316;2022-12-24T04:09:22;10.70;99.90
21787;DHT22;11055;50.870;4.316;2022-12-24T04:11:47;10.60;99.90
21787;DHT22;11055;50.870;4.316;2022-12-24T04:14:13;10.60;99.90
21787;DHT22;11055;50.870;4.316;2022-12-24T04:16:39;10.50;99.90
21787;DHT22;11055;50.870;4.316;2022-12-24T04:19:04;10.60;99.90
21787;DHT22;11055;50.870;4.316;2022-12-24T04:21:30;10.50;99.90
21787;DHT22;11055;50.870;4.316;2022-12-24T04:23:56;10.50;99.90
21787;DHT22;11055;50.870;4.316;2022-12-24T04:26:21;10.50;99.90
21787;DHT22;11055;50.870;4.316;2022-12-24T04:28:47;10.50;99.90
21787;DHT22;11055;50.870;4.316;2022-12-24T04:31:15;10.50;99.90
21787;DHT22;11055;50.870;4.316;2022-12-24T04:33:42;10.50;99.90
21787;DHT22;11055;50.870;4.316;2022-12-24T04:36:11;10.50;99.90
21787;DHT22;11055;50.870;4.316;2022-12-24T04:38:37;10.50;99.90
21787;DHT22;11055;50.870;4.316;2022-12-24T04:41:09;10.50;99.90
21787;DHT22;11055;50.870;4.316;2022-12-24T04:43:36;10.50;99.90
21787;DHT22;11055;50.870;4.316;2022-12-24T04:46:07;10.50;99.90
21787;DHT22;11055;50.870;4.316;2022-12-24T04:48:34;10.50;99.90
21787;DHT22;11055;50.870;4.316;2022-12-24T04:51:01;10.50;99.90
21787;DHT22;11055;50.870;4.316;2022-12-24T04:53:28;10.50;99.90
21787;DHT22;11055;50.870;4.316;2022-12-24T04:55:53;10.40;99.90
21787;DHT22;11055;50.870;4.316;2022-12-24T04:58:19;10.40;99.90
21787;DHT22;11055;50.870;4.316;2022-12-24T05:00:44;10.30;99.90
21787;DHT22;11055;50.870;4.316;2022-12-24T05:03:10;10.30;99.90
21787;DHT22;11055;50.870;4.316;2022-12-24T05:05:36;10.30;99.90
21787;DHT22;11055;50.870;4.316;2022-12-24T05:08:02;10.30;99.90
21787;DHT22;11055;50.870;4.316;2022-12-24T05:10:27;10.20;99.90
21787;DHT22;11055;50.870;4.316;2022-12-24T05:12:53;10.30;99.90
21787;DHT22;11055;50.870;4.316;2022-12-24T05:15:19;10.20;99.90
21787;DHT22;11055;50.870;4.316;2022-12-24T05:17:45;10.20;99.90
21787;DHT22;11055;50.870;4.316;2022-12-24T05:20:11;10.10;99.90
21787;DHT22;11055;50.870;4.316;2022-12-24T05:22:36;10.10;99.90
21787;DHT22;11055;50.870;4.316;2022-12-24T05:25:20;10.10;99.90
21787;DHT22;11055;50.870;4.316;2022-12-24T05:28:04;10.20;99.90
21787;DHT22;11055;50.870;4.316;2022-12-24T05:30:30;10.30;99.90
21787;DHT22;11055;50.870;4.316;2022-12-24T05:32:56;10.30;99.90
21787;DHT22;11055;50.870;4.316;2022-12-24T05:35:21;10.40;99.90
21787;DHT22;11055;50.870;4.316;2022-12-24T05:37:47;10.40;99.90
21787;DHT22;11055;50.870;4.316;2022-12-24T05:40:13;10.40;99.90
21787;DHT22;11055;50.870;4.316;2022-12-24T05:42:38;10.50;99.90
21787;DHT22;11055;50.870;4.316;2022-12-24T05:45:04;10.50;99.90
21787;DHT22;11055;50.870;4.316;2022-12-24T05:47:30;10.60;99.90
21787;DHT22;11055;50.870;4.316;2022-12-24T05:49:56;10.60;99.90
21787;DHT22;11055;50.870;4.316;2022-12-24T05:52:21;10.70;99.90
21787;DHT22;11055;50.870;4.316;2022-12-24T05:54:47;10.70;99.90
21787;DHT22;11055;50.870;4.316;2022-12-24T05:57:13;10.70;99.90
21787;DHT22;11055;50.870;4.316;2022-12-24T05:59:38;10.70;99.90
21787;DHT22;11055;50.870;4.316;2022-12-24T06:02:04;10.80;99.90
21787;DHT22;11055;50.870;4.316;2022-12-24T06:04:29;10.80;99.90
21787;DHT22;11055;50.870;4.316;2022-12-24T06:06:55;10.80;99.90
21787;DHT22;11055;50.870;4.316;2022-12-24T06:09:21;10.70;99.90
21787;DHT22;11055;50.870;4.316;2022-12-24T06:11:46;10.80;99.90
21787;DHT22;11055;50.870;4.316;2022-12-24T06:14:12;10.80;99.90
21787;DHT22;11055;50.870;4.316;2022-12-24T06:16:38;10.80;99.90
21787;DHT22;11055;50.870;4.316;2022-12-24T06:19:03;10.80;99.90
21787;DHT22;11055;50.870;4.316;2022-12-24T06:21:29;10.80;99.90
21787;DHT22;11055;50.870;4.316;2022-12-24T06:23:55;10.80;99.90
21787;DHT22;11055;50.870;4.316;2022-12-24T06:26:22;10.80;99.90
21787;DHT22;11055;50.870;4.316;2022-12-24T06:28:49;10.80;99.90
21787;DHT22;11055;50.870;4.316;2022-12-24T06:31:18;10.80;99.90
21787;DHT22;11055;50.870;4.316;2022-12-24T06:33:44;10.80;99.90
21787;DHT22;11055;50.870;4.316;2022-12-24T06:36:18;10.70;99.90
21787;DHT22;11055;50.870;4.316;2022-12-24T06:38:45;10.60;99.90
21787;DHT22;11055;50.870;4.316;2022-12-24T06:41:10;10.60;99.90
21787;DHT22;11055;50.870;4.316;2022-12-24T06:43:36;10.60;99.90
21787;DHT22;11055;50.870;4.316;2022-12-24T06:46:02;10.60;99.90
21787;DHT22;11055;50.870;4.316;2022-12-24T06:48:28;10.60;99.90
21787;DHT22;11055;50.870;4.316;2022-12-24T06:50:54;10.60;99.90
21787;DHT22;11055;50.870;4.316;2022-12-24T06:53:19;10.60;99.90
21787;DHT22;11055;50.870;4.316;2022-12-24T06:55:45;10.70;99.90
21787;DHT22;11055;50.870;4.316;2022-12-24T06:58:11;10.70;99.90
21787;DHT22;11055;50.870;4.316;2022-12-24T07:00:37;10.60;99.90
21787;DHT22;11055;50.870;4.316;2022-12-24T07:03:02;10.60;99.90
21787;DHT22;11055;50.870;4.316;2022-12-24T07:05:28;10.60;99.90
21787;DHT22;11055;50.870;4.316;2022-12-24T07:07:54;10.50;99.90
21787;DHT22;11055;50.870;4.316;2022-12-24T07:10:21;10.50;99.90
21787;DHT22;11055;50.870;4.316;2022-12-24T07:12:47;10.60;99.90
21787;DHT22;11055;50.870;4.316;2022-12-24T07:15:14;10.60;99.90
21787;DHT22;11055;50.870;4.316;2022-12-24T07:17:40;10.60;99.90
21787;DHT22;11055;50.870;4.316;2022-12-24T07:20:07;10.60;99.90
21787;DHT22;11055;50.870;4.316;2022-12-24T07:22:34;10.60;99.90
21787;DHT22;11055;50.870;4.316;2022-12-24T07:25:00;10.60;99.90
21787;DHT22;11055;50.870;4.316;2022-12-24T07:27:25;10.60;99.90
21787;DHT22;11055;50.870;4.316;2022-12-24T07:29:51;10.60;99.90
21787;DHT22;11055;50.870;4.316;2022-12-24T07:32:17;10.60;99.90
21787;DHT22;11055;50.870;4.316;2022-12-24T07:34:44;10.60;99.90
21787;DHT22;11055;50.870;4.316;2022-12-24T07:37:10;10.70;99.90
21787;DHT22;11055;50.870;4.316;2022-12-24T07:39:36;10.70;99.90
21787;DHT22;11055;50.870;4.316;2022-12-24T07:42:02;10.70;99.90
21787;DHT22;11055;50.870;4.316;2022-12-24T07:44:30;10.70;99.90
21787;DHT22;11055;50.870;4.316;2022-12-24T07:46:55;10.70;99.90
21787;DHT22;11055;50.870;4.316;2022-12-24T07:49:21;10.70;99.90
21787;DHT22;11055;50.870;4.316;2022-12-24T07:51:46;10.70;99.90
21787;DHT22;11055;50.870;4.316;2022-12-24T07:54:12;10.60;99.90
21787;DHT22;11055;50.870;4.316;2022-12-24T07:56:38;10.50;99.90
21787;DHT22;11055;50.870;4.316;2022-12-24T07:59:03;10.40;99.90
21787;DHT22;11055;50.870;4.316;2022-12-24T08:01:29;10.30;99.90
21787;DHT22;11055;50.870;4.316;2022-12-24T08:03:55;10.30;99.90
21787;DHT22;11055;50.870;4.316;2022-12-24T08:06:21;10.30;99.90
21787;DHT22;11055;50.870;4.316;2022-12-24T08:08:46;10.30;99.90
21787;DHT22;11055;50.870;4.316;2022-12-24T08:11:12;10.30;99.90
21787;DHT22;11055;50.870;4.316;2022-12-24T08:13:38;10.40;99.90
21787;DHT22;11055;50.870;4.316;2022-12-24T08:16:04;10.40;99.90
21787;DHT22;11055;50.870;4.316;2022-12-24T08:18:30;10.50;99.90
21787;DHT22;11055;50.870;4.316;2022-12-24T08:20:56;10.50;99.90
21787;DHT22;11055;50.870;4.316;2022-12-24T08:23:21;10.60;99.90
21787;DHT22;11055;50.870;4.316;2022-12-24T08:25:48;10.60;99.90
21787;DHT22;11055;50.870;4.316;2022-12-24T08:28:17;10.60;99.90
21787;DHT22;11055;50.870;4.316;2022-12-24T08:30:44;10.60;99.90
21787;DHT22;11055;50.870;4.316;2022-12-24T08:33:10;10.60;99.90
21787;DHT22;11055;50.870;4.316;2022-12-24T08:35:36;10.70;99.90
21787;DHT22;11055;50.870;4.316;2022-12-24T08:38:02;10.70;99.90
21787;DHT22;11055;50.870;4.316;2022-12-24T08:40:27;10.70;99.90
21787;DHT22;11055;50.870;4.316;2022-12-24T08:42:53;10.80;99.90
21787;DHT22;11055;50.870;4.316;2022-12-24T08:45:19;10.80;99.90
21787;DHT22;11055;50.870;4.316;2022-12-24T08:47:45;10.80;99.90
21787;DHT22;11055;50.870;4.316;2022-12-24T08:50:11;10.80;99.90
21787;DHT22;11055;50.870;4.316;2022-12-24T08:52:37;10.80;99.90
21787;DHT22;11055;50.870;4.316;2022-12-24T08:55:03;10.90;99.90
21787;DHT22;11055;50.870;4.316;2022-12-24T08:57:29;10.90;99.90
21787;DHT22;11055;50.870;4.316;2022-12-24T08:59:55;10.90;99.90
21787;DHT22;11055;50.870;4.316;2022-12-24T09:02:20;11.00;99.90
21787;DHT22;11055;50.870;4.316;2022-12-24T09:04:48;11.10;99.90
21787;DHT22;11055;50.870;4.316;2022-12-24T09:07:13;11.10;99.90
21787;DHT22;11055;50.870;4.316;2022-12-24T09:09:39;11.10;99.90
21787;DHT22;11055;50.870;4.316;2022-12-24T09:12:06;11.20;99.90
21787;DHT22;11055;50.870;4.316;2022-12-24T09:14:32;11.20;99.90
21787;DHT22;11055;50.870;4.316;2022-12-24T09:16:57;11.20;99.90
21787;DHT22;11055;50.870;4.316;2022-12-24T09:19:24;11.10;99.90
21787;DHT22;11055;50.870;4.316;2022-12-24T09:21:49;11.10;99.90
21787;DHT22;11055;50.870;4.316;2022-12-24T09:24:16;11.10;99.90
21787;DHT22;11055;50.870;4.316;2022-12-24T09:26:42;11.10;99.90
21787;DHT22;11055;50.870;4.316;2022-12-24T09:29:10;11.20;99.90
21787;DHT22;11055;50.870;4.316;2022-12-24T09:31:36;11.30;99.90
21787;DHT22;11055;50.870;4.316;2022-12-24T09:34:01;11.30;99.90
21787;DHT22;11055;50.870;4.316;2022-12-24T09:36:27;11.20;99.90
21787;DHT22;11055;50.870;4.316;2022-12-24T09:38:53;11.10;99.90
21787;DHT22;11055;50.870;4.316;2022-12-24T09:43:53;11.10;99.90
21787;DHT22;11055;50.870;4.316;2022-12-24T09:46:24;11.20;99.90
21787;DHT22;11055;50.870;4.316;2022-12-24T09:48:54;11.20;99.90
21787;DHT22;11055;50.870;4.316;2022-12-24T09:51:41;11.10;99.90
21787;DHT22;11055;50.870;4.316;2022-12-24T09:54:31;11.10;99.90
21787;DHT22;11055;50.870;4.316;2022-12-24T09:57:04;11.00;99.90
21787;DHT22;11055;50.870;4.316;2022-12-24T09:59:43;11.10;99.90
21787;DHT22;11055;50.870;4.316;2022-12-24T10:02:14;11.20;99.90
21787;DHT22;11055;50.870;4.316;2022-12-24T10:04:42;11.30;99.90
21787;DHT22;11055;50.870;4.316;2022-12-24T10:07:43;11.30;99.90
21787;DHT22;11055;50.870;4.316;2022-12-24T10:10:30;11.50;99.90
21787;DHT22;11055;50.870;4.316;2022-12-24T10:16:27;11.60;99.90
21787;DHT22;11055;50.870;4.316;2022-12-24T10:21:53;11.80;99.90
21787;DHT22;11055;50.870;4.316;2022-12-24T10:24:36;11.90;99.90
21787;DHT22;11055;50.870;4.316;2022-12-24T10:27:11;11.80;99.90
21787;DHT22;11055;50.870;4.316;2022-12-24T10:29:42;11.70;99.90
21787;DHT22;11055;50.870;4.316;2022-12-24T10:34:42;11.70;99.90
21787;DHT22;11055;50.870;4.316;2022-12-24T10:37:18;11.70;99.90
21787;DHT22;11055;50.870;4.316;2022-12-24T10:39:45;11.70;99.90
21787;DHT22;11055;50.870;4.316;2022-12-24T10:42:12;11.70;99.90
21787;DHT22;11055;50.870;4.316;2022-12-24T10:44:39;11.60;99.90
21787;DHT22;11055;50.870;4.316;2022-12-24T10:47:07;11.60;99.90
21787;DHT22;11055;50.870;4.316;2022-12-24T10:49:44;11.80;99.90
21787;DHT22;11055;50.870;4.316;2022-12-24T10:52:16;11.90;99.90
21787;DHT22;11055;50.870;4.316;2022-12-24T10:55:03;12.00;99.90
21787;DHT22;11055;50.870;4.316;2022-12-24T10:57:29;12.10;99.90
21787;DHT22;11055;50.870;4.316;2022-12-24T10:59:55;12.10;99.90
21787;DHT22;11055;50.870;4.316;2022-12-24T11:02:36;11.90;99.90
21787;DHT22;11055;50.870;4.316;2022-12-24T11:05:05;11.80;99.90
21787;DHT22;11055;50.870;4.316;2022-12-24T11:07:32;11.80;99.90
21787;DHT22;11055;50.870;4.316;2022-12-24T11:10:06;11.80;99.90
21787;DHT22;11055;50.870;4.316;2022-12-24T11:12:38;11.80;99.90
21787;DHT22;11055;50.870;4.316;2022-12-24T11:15:18;11.90;99.90
21787;DHT22;11055;50.870;4.316;2022-12-24T11:18:03;12.00;99.90
21787;DHT22;11055;50.870;4.316;2022-12-24T11:20:32;12.10;99.90
21787;DHT22;11055;50.870;4.316;2022-12-24T11:22:58;12.20;99.90
21787;DHT22;11055;50.870;4.316;2022-12-24T11:25:30;12.20;99.90
21787;DHT22;11055;50.870;4.316;2022-12-24T11:28:10;12.20;99.90
21787;DHT22;11055;50.870;4.316;2022-12-24T11:30:36;12.10;99.90
21787;DHT22;11055;50.870;4.316;2022-12-24T11:35:30;12.10;99.90
21787;DHT22;11055;50.870;4.316;2022-12-24T11:40:41;12.20;99.90
21787;DHT22;11055;50.870;4.316;2022-12-24T11:43:19;12.20;99.90
21787;DHT22;11055;50.870;4.316;2022-12-24T11:45:53;12.50;99.90
21787;DHT22;11055;50.870;4.316;2022-12-24T11:48:31;12.80;99.90
21787;DHT22;11055;50.870;4.316;2022-12-24T11:51:05;12.90;99.90
21787;DHT22;11055;50.870;4.316;2022-12-24T11:53:44;13.00;99.90
21787;DHT22;11055;50.870;4.316;2022-12-24T11:56:42;12.70;99.90
21787;DHT22;11055;50.870;4.316;2022-12-24T11:59:28;12.70;99.90
21787;DHT22;11055;50.870;4.316;2022-12-24T12:02:02;13.20;99.90
21787;DHT22;11055;50.870;4.316;2022-12-24T12:04:38;13.60;99.90
21787;DHT22;11055;50.870;4.316;2022-12-24T12:09:48;13.30;99.90
21787;DHT22;11055;50.870;4.316;2022-12-24T12:12:27;13.40;99.90
21787;DHT22;11055;50.870;4.316;2022-12-24T12:14:57;13.30;99.90
21787;DHT22;11055;50.870;4.316;2022-12-24T12:17:43;13.40;99.90
21787;DHT22;11055;50.870;4.316;2022-12-24T12:20:24;13.10;99.90
21787;DHT22;11055;50.870;4.316;2022-12-24T12:23:06;12.80;99.90
21787;DHT22;11055;50.870;4.316;2022-12-24T12:25:52;12.60;99.90
21787;DHT22;11055;50.870;4.316;2022-12-24T12:28:29;12.50;99.90
21787;DHT22;11055;50.870;4.316;2022-12-24T12:31:10;12.50;99.90
21787;DHT22;11055;50.870;4.316;2022-12-24T12:33:45;12.50;99.90
21787;DHT22;11055;50.870;4.316;2022-12-24T12:36:17;12.60;99.90
21787;DHT22;11055;50.870;4.316;2022-12-24T12:38:45;12.50;99.90
21787;DHT22;11055;50.870;4.316;2022-12-24T12:41:24;12.60;99.90
21787;DHT22;11055;50.870;4.316;2022-12-24T12:52:08;12.80;99.90
21787;DHT22;11055;50.870;4.316;2022-12-24T12:57:37;13.10;99.90
21787;DHT22;11055;50.870;4.316;2022-12-24T13:00:11;12.90;99.90
21787;DHT22;11055;50.870;4.316;2022-12-24T13:14:01;12.80;99.90
21787;DHT22;11055;50.870;4.316;2022-12-24T13:21:53;12.80;99.90
21787;DHT22;11055;50.870;4.316;2022-12-24T13:24:25;12.80;99.90
21787;DHT22;11055;50.870;4.316;2022-12-24T13:27:25;12.80;99.90
21787;DHT22;11055;50.870;4.316;2022-12-24T13:32:47;12.90;99.90
21787;DHT22;11055;50.870;4.316;2022-12-24T13:37:45;13.00;99.90
21787;DHT22;11055;50.870;4.316;2022-12-24T13:56:25;13.10;99.90
21787;DHT22;11055;50.870;4.316;2022-12-24T13:59:09;13.10;99.90
21787;DHT22;11055;50.870;4.316;2022-12-24T14:01:38;13.00;99.90
21787;DHT22;11055;50.870;4.316;2022-12-24T14:04:07;13.00;99.90
21787;DHT22;11055;50.870;4.316;2022-12-24T14:06:39;12.80;99.90
21787;DHT22;11055;50.870;4.316;2022-12-24T14:09:20;12.80;99.90
21787;DHT22;11055;50.870;4.316;2022-12-24T14:14:38;12.80;99.90
21787;DHT22;11055;50.870;4.316;2022-12-24T14:17:23;12.80;99.90
21787;DHT22;11055;50.870;4.316;2022-12-24T14:19:59;12.80;99.90
21787;DHT22;11055;50.870;4.316;2022-12-24T14:22:43;12.70;99.90
21787;DHT22;11055;50.870;4.316;2022-12-24T14:25:17;12.80;99.90
21787;DHT22;11055;50.870;4.316;2022-12-24T14:30:29;12.90;99.90
21787;DHT22;11055;50.870;4.316;2022-12-24T14:32:55;12.90;99.90
21787;DHT22;11055;50.870;4.316;2022-12-24T14:38:11;12.70;99.90
21787;DHT22;11055;50.870;4.316;2022-12-24T14:44:06;12.60;99.90
21787;DHT22;11055;50.870;4.316;2022-12-24T14:46:53;12.80;99.90
21787;DHT22;11055;50.870;4.316;2022-12-24T14:54:39;13.00;99.90
21787;DHT22;11055;50.870;4.316;2022-12-24T14:57:26;12.90;99.90
21787;DHT22;11055;50.870;4.316;2022-12-24T14:59:59;13.00;99.90
21787;DHT22;11055;50.870;4.316;2022-12-24T15:02:46;12.90;99.90
21787;DHT22;11055;50.870;4.316;2022-12-24T15:10:33;12.90;99.90
21787;DHT22;11055;50.870;4.316;2022-12-24T15:13:06;12.60;99.90
21787;DHT22;11055;50.870;4.316;2022-12-24T15:15:33;12.60;99.90
21787;DHT22;11055;50.870;4.316;2022-12-24T15:17:59;12.60;99.90
21787;DHT22;11055;50.870;4.316;2022-12-24T15:20:27;12.50;99.90
21787;DHT22;11055;50.870;4.316;2022-12-24T15:22:56;12.60;99.90
21787;DHT22;11055;50.870;4.316;2022-12-24T15:25:29;12.60;99.90
21787;DHT22;11055;50.870;4.316;2022-12-24T15:27:56;12.70;99.90
21787;DHT22;11055;50.870;4.316;2022-12-24T15:30:27;12.90;99.90
21787;DHT22;11055;50.870;4.316;2022-12-24T15:32:55;13.00;99.90
21787;DHT22;11055;50.870;4.316;2022-12-24T15:41:02;13.10;99.90
21787;DHT22;11055;50.870;4.316;2022-12-24T15:43:29;13.30;99.90
21787;DHT22;11055;50.870;4.316;2022-12-24T15:45:56;13.40;99.90
21787;DHT22;11055;50.870;4.316;2022-12-24T15:48:26;13.50;99.90
21787;DHT22;11055;50.870;4.316;2022-12-24T15:50:58;13.50;99.90
21787;DHT22;11055;50.870;4.316;2022-12-24T15:53:33;13.50;99.90
21787;DHT22;11055;50.870;4.316;2022-12-24T15:56:07;13.40;99.90
21787;DHT22;11055;50.870;4.316;2022-12-24T15:58:39;13.50;99.90
21787;DHT22;11055;50.870;4.316;2022-12-24T16:03:31;13.40;99.90
21787;DHT22;11055;50.870;4.316;2022-12-24T16:06:04;13.50;99.90
21787;DHT22;11055;50.870;4.316;2022-12-24T16:08:36;13.60;99.90
21787;DHT22;11055;50.870;4.316;2022-12-24T16:13:35;13.50;99.90
21787;DHT22;11055;50.870;4.316;2022-12-24T16:16:06;13.30;99.90
21787;DHT22;11055;50.870;4.316;2022-12-24T16:18:57;13.20;99.90
21787;DHT22;11055;50.870;4.316;2022-12-24T16:21:33;13.00;99.90
21787;DHT22;11055;50.870;4.316;2022-12-24T16:24:19;12.90;99.90
21787;DHT22;11055;50.870;4.316;2022-12-24T16:26:46;12.80;99.90
21787;DHT22;11055;50.870;4.316;2022-12-24T16:29:13;12.80;99.90
21787;DHT22;11055;50.870;4.316;2022-12-24T16:34:14;12.80;99.90
21787;DHT22;11055;50.870;4.316;2022-12-24T16:36:40;12.70;99.90
21787;DHT22;11055;50.870;4.316;2022-12-24T16:39:22;12.70;99.90
21787;DHT22;11055;50.870;4.316;2022-12-24T16:41:50;12.70;99.90
21787;DHT22;11055;50.870;4.316;2022-12-24T16:44:35;12.70;99.90
21787;DHT22;11055;50.870;4.316;2022-12-24T16:47:03;12.70;99.90
21787;DHT22;11055;50.870;4.316;2022-12-24T16:49:30;12.70;99.90
21787;DHT22;11055;50.870;4.316;2022-12-24T16:51:56;12.60;99.90
21787;DHT22;11055;50.870;4.316;2022-12-24T16:54:21;12.60;99.90
21787;DHT22;11055;50.870;4.316;2022-12-24T16:56:47;12.60;99.90
21787;DHT22;11055;50.870;4.316;2022-12-24T16:59:18;12.70;99.90
21787;DHT22;11055;50.870;4.316;2022-12-24T17:01:44;12.70;99.90
21787;DHT22;11055;50.870;4.316;2022-12-24T17:04:10;12.70;99.90
21787;DHT22;11055;50.870;4.316;2022-12-24T17:06:36;12.60;99.90
21787;DHT22;11055;50.870;4.316;2022-12-24T17:09:02;12.50;99.90
21787;DHT22;11055;50.870;4.316;2022-12-24T17:11:27;12.50;99.90
21787;DHT22;11055;50.870;4.316;2022-12-24T17:13:53;12.50;99.90
21787;DHT22;11055;50.870;4.316;2022-12-24T17:16:19;12.60;99.90
21787;DHT22;11055;50.870;4.316;2022-12-24T17:18:44;12.60;99.90
21787;DHT22;11055;50.870;4.316;2022-12-24T17:21:10;12.60;99.90
21787;DHT22;11055;50.870;4.316;2022-12-24T17:23:39;12.60;99.90
21787;DHT22;11055;50.870;4.316;2022-12-24T17:26:06;12.60;99.90
21787;DHT22;11055;50.870;4.316;2022-12-24T17:28:31;12.50;99.90
21787;DHT22;11055;50.870;4.316;2022-12-24T17:30:57;12.20;99.90
21787;DHT22;11055;50.870;4.316;2022-12-24T17:33:23;12.00;99.90
21787;DHT22;11055;50.870;4.316;2022-12-24T17:35:50;11.90;99.90
21787;DHT22;11055;50.870;4.316;2022-12-24T17:38:17;11.80;99.90
21787;DHT22;11055;50.870;4.316;2022-12-24T17:40:42;11.70;99.90
21787;DHT22;11055;50.870;4.316;2022-12-24T17:43:08;11.60;99.90
21787;DHT22;11055;50.870;4.316;2022-12-24T17:45:38;11.70;99.90
21787;DHT22;11055;50.870;4.316;2022-12-24T17:48:04;11.70;99.90
21787;DHT22;11055;50.870;4.316;2022-12-24T17:50:29;11.80;99.90
21787;DHT22;11055;50.870;4.316;2022-12-24T17:52:55;11.70;99.90